sensor_id;sensor_type;location;lat;lon;timestamp;P1;durP1;ratioP1;P2;durP2;ratioP2
47403;SDS011;33157;51.508;4.288;2023-03-25T00:01:13;25.17;;;3.40;;
47403;SDS011;33157;51.508;4.288;2023-03-25T00:06:19;24.05;;;3.47;;
47403;SDS011;33157;51.508;4.288;2023-03-25T00:11:23;15.35;;;2.90;;
47403;SDS011;33157;51.508;4.288;2023-03-25T00:16:39;15.63;;;3.85;;
47403;SDS011;33157;51.508;4.288;2023-03-25T00:21:44;17.08;;;3.15;;
47403;SDS011;33157;51.508;4.288;2023-03-25T00:26:49;12.55;;;2.47;;
47403;SDS011;33157;51.508;4.288;2023-03-25T00:31:52;20.35;;;3.85;;
47403;SDS011;33157;51.508;4.288;2023-03-25T00:36:54;15.75;;;2.80;;
47403;SDS011;33157;51.508;4.288;2023-03-25T00:41:56;14.60;;;2.47;;
47403;SDS011;33157;51.508;4.288;2023-03-25T00:46:58;13.20;;;2.10;;
47403;SDS011;33157;51.508;4.288;2023-03-25T00:51:58;13.48;;;2.30;;
47403;SDS011;33157;51.508;4.288;2023-03-25T00:57:00;15.45;;;2.53;;
47403;SDS011;33157;51.508;4.288;2023-03-25T01:02:02;17.77;;;2.38;;
47403;SDS011;33157;51.508;4.288;2023-03-25T01:07:07;15.20;;;2.13;;
47403;SDS011;33157;51.508;4.288;2023-03-25T01:12:08;14.70;;;2.40;;
47403;SDS011;33157;51.508;4.288;2023-03-25T01:17:11;20.30;;;3.15;;
47403;SDS011;33157;51.508;4.288;2023-03-25T01:22:12;10.15;;;2.20;;
47403;SDS011;33157;51.508;4.288;2023-03-25T01:27:12;15.85;;;3.20;;
47403;SDS011;33157;51.508;4.288;2023-03-25T01:32:18;11.23;;;2.10;;
47403;SDS011;33157;51.508;4.288;2023-03-25T01:37:20;15.23;;;3.42;;
47403;SDS011;33157;51.508;4.288;2023-03-25T01:47:42;15.82;;;2.17;;
47403;SDS011;33157;51.508;4.288;2023-03-25T01:52:45;16.33;;;3.20;;
47403;SDS011;33157;51.508;4.288;2023-03-25T01:57:50;16.67;;;2.80;;
47403;SDS011;33157;51.508;4.288;2023-03-25T02:02:57;19.98;;;3.20;;
47403;SDS011;33157;51.508;4.288;2023-03-25T02:08:03;20.40;;;3.65;;
47403;SDS011;33157;51.508;4.288;2023-03-25T02:13:05;19.77;;;2.80;;
47403;SDS011;33157;51.508;4.288;2023-03-25T02:24:15;27.73;;;3.65;;
47403;SDS011;33157;51.508;4.288;2023-03-25T02:29:36;23.02;;;3.67;;
47403;SDS011;33157;51.508;4.288;2023-03-25T02:50:50;24.75;;;4.35;;
47403;SDS011;33157;51.508;4.288;2023-03-25T02:55:53;18.40;;;3.55;;
47403;SDS011;33157;51.508;4.288;2023-03-25T03:01:05;17.45;;;3.53;;
47403;SDS011;33157;51.508;4.288;2023-03-25T03:06:14;21.58;;;3.67;;
47403;SDS011;33157;51.508;4.288;2023-03-25T03:28:03;19.90;;;4.63;;
47403;SDS011;33157;51.508;4.288;2023-03-25T03:39:15;22.75;;;4.40;;
47403;SDS011;33157;51.508;4.288;2023-03-25T03:44:23;26.83;;;4.45;;
47403;SDS011;33157;51.508;4.288;2023-03-25T03:49:28;23.90;;;4.00;;
47403;SDS011;33157;51.508;4.288;2023-03-25T03:54:47;30.05;;;4.95;;
47403;SDS011;33157;51.508;4.288;2023-03-25T04:05:16;25.08;;;3.78;;
47403;SDS011;33157;51.508;4.288;2023-03-25T04:15:34;16.95;;;3.28;;
47403;SDS011;33157;51.508;4.288;2023-03-25T04:20:35;13.95;;;2.33;;
47403;SDS011;33157;51.508;4.288;2023-03-25T04:25:38;12.40;;;2.67;;
47403;SDS011;33157;51.508;4.288;2023-03-25T04:30:45;19.70;;;4.18;;
47403;SDS011;33157;51.508;4.288;2023-03-25T04:35:47;12.18;;;3.53;;
47403;SDS011;33157;51.508;4.288;2023-03-25T04:40:50;27.45;;;3.70;;
47403;SDS011;33157;51.508;4.288;2023-03-25T04:45:53;16.35;;;3.13;;
47403;SDS011;33157;51.508;4.288;2023-03-25T04:50:55;21.60;;;3.35;;
47403;SDS011;33157;51.508;4.288;2023-03-25T04:55:57;22.13;;;3.85;;
47403;SDS011;33157;51.508;4.288;2023-03-25T05:00:59;21.40;;;3.55;;
47403;SDS011;33157;51.508;4.288;2023-03-25T05:06:10;20.70;;;3.70;;
47403;SDS011;33157;51.508;4.288;2023-03-25T05:11:18;20.48;;;2.95;;
47403;SDS011;33157;51.508;4.288;2023-03-25T05:16:20;19.65;;;3.80;;
47403;SDS011;33157;51.508;4.288;2023-03-25T05:21:33;20.33;;;4.05;;
47403;SDS011;33157;51.508;4.288;2023-03-25T05:26:37;14.35;;;2.38;;
47403;SDS011;33157;51.508;4.288;2023-03-25T05:31:41;21.38;;;3.38;;
47403;SDS011;33157;51.508;4.288;2023-03-25T05:36:50;18.48;;;3.10;;
47403;SDS011;33157;51.508;4.288;2023-03-25T05:41:58;19.88;;;3.40;;
47403;SDS011;33157;51.508;4.288;2023-03-25T05:47:02;22.25;;;4.32;;
47403;SDS011;33157;51.508;4.288;2023-03-25T05:52:09;25.00;;;4.57;;
47403;SDS011;33157;51.508;4.288;2023-03-25T05:57:11;20.08;;;4.10;;
47403;SDS011;33157;51.508;4.288;2023-03-25T06:02:25;25.30;;;3.73;;
47403;SDS011;33157;51.508;4.288;2023-03-25T06:07:26;20.40;;;4.07;;
47403;SDS011;33157;51.508;4.288;2023-03-25T06:12:27;23.05;;;4.10;;
47403;SDS011;33157;51.508;4.288;2023-03-25T06:17:29;26.13;;;4.05;;
47403;SDS011;33157;51.508;4.288;2023-03-25T06:22:32;25.80;;;3.53;;
47403;SDS011;33157;51.508;4.288;2023-03-25T06:27:37;23.20;;;4.13;;
47403;SDS011;33157;51.508;4.288;2023-03-25T06:32:43;21.55;;;3.55;;
47403;SDS011;33157;51.508;4.288;2023-03-25T06:37:47;23.30;;;3.43;;
47403;SDS011;33157;51.508;4.288;2023-03-25T06:42:50;20.38;;;4.00;;
47403;SDS011;33157;51.508;4.288;2023-03-25T06:47:53;25.75;;;4.38;;
47403;SDS011;33157;51.508;4.288;2023-03-25T06:52:54;25.88;;;4.40;;
47403;SDS011;33157;51.508;4.288;2023-03-25T06:57:56;25.58;;;4.43;;
47403;SDS011;33157;51.508;4.288;2023-03-25T07:03:02;23.02;;;4.10;;
47403;SDS011;33157;51.508;4.288;2023-03-25T07:08:05;25.50;;;4.47;;
47403;SDS011;33157;51.508;4.288;2023-03-25T07:13:10;25.38;;;4.45;;
47403;SDS011;33157;51.508;4.288;2023-03-25T07:18:11;32.42;;;5.40;;
47403;SDS011;33157;51.508;4.288;2023-03-25T07:23:12;28.10;;;4.95;;
47403;SDS011;33157;51.508;4.288;2023-03-25T07:28:15;30.73;;;4.97;;
47403;SDS011;33157;51.508;4.288;2023-03-25T07:33:16;35.03;;;5.35;;
47403;SDS011;33157;51.508;4.288;2023-03-25T07:38:19;23.33;;;4.43;;
47403;SDS011;33157;51.508;4.288;2023-03-25T07:43:21;29.92;;;4.53;;
47403;SDS011;33157;51.508;4.288;2023-03-25T07:48:22;28.58;;;4.88;;
47403;SDS011;33157;51.508;4.288;2023-03-25T07:53:30;30.60;;;5.72;;
47403;SDS011;33157;51.508;4.288;2023-03-25T07:58:40;27.05;;;4.47;;
47403;SDS011;33157;51.508;4.288;2023-03-25T08:03:49;20.98;;;4.43;;
47403;SDS011;33157;51.508;4.288;2023-03-25T08:08:50;32.63;;;5.22;;
47403;SDS011;33157;51.508;4.288;2023-03-25T08:13:56;22.20;;;4.63;;
47403;SDS011;33157;51.508;4.288;2023-03-25T08:18:57;23.27;;;4.28;;
47403;SDS011;33157;51.508;4.288;2023-03-25T08:24:03;24.00;;;4.30;;
47403;SDS011;33157;51.508;4.288;2023-03-25T08:29:05;33.47;;;5.78;;
47403;SDS011;33157;51.508;4.288;2023-03-25T08:34:11;28.92;;;5.20;;
47403;SDS011;33157;51.508;4.288;2023-03-25T08:39:13;26.35;;;5.28;;
47403;SDS011;33157;51.508;4.288;2023-03-25T08:44:16;28.58;;;4.53;;
47403;SDS011;33157;51.508;4.288;2023-03-25T08:49:18;31.10;;;5.25;;
47403;SDS011;33157;51.508;4.288;2023-03-25T08:54:20;31.98;;;5.82;;
47403;SDS011;33157;51.508;4.288;2023-03-25T08:59:26;29.10;;;4.65;;
47403;SDS011;33157;51.508;4.288;2023-03-25T09:04:28;26.98;;;4.20;;
47403;SDS011;33157;51.508;4.288;2023-03-25T09:09:30;28.63;;;4.90;;
47403;SDS011;33157;51.508;4.288;2023-03-25T09:14:31;25.27;;;5.55;;
47403;SDS011;33157;51.508;4.288;2023-03-25T09:19:34;20.43;;;4.17;;
47403;SDS011;33157;51.508;4.288;2023-03-25T09:24:42;29.10;;;5.05;;
47403;SDS011;33157;51.508;4.288;2023-03-25T09:29:44;31.40;;;5.20;;
47403;SDS011;33157;51.508;4.288;2023-03-25T09:34:45;25.25;;;4.85;;
47403;SDS011;33157;51.508;4.288;2023-03-25T09:39:58;23.60;;;4.13;;
47403;SDS011;33157;51.508;4.288;2023-03-25T09:50:28;20.73;;;3.70;;
47403;SDS011;33157;51.508;4.288;2023-03-25T09:55:40;25.45;;;3.75;;
47403;SDS011;33157;51.508;4.288;2023-03-25T10:00:42;20.40;;;3.67;;
47403;SDS011;33157;51.508;4.288;2023-03-25T10:27:20;16.63;;;3.95;;
47403;SDS011;33157;51.508;4.288;2023-03-25T10:32:33;18.55;;;3.28;;
47403;SDS011;33157;51.508;4.288;2023-03-25T10:37:40;22.80;;;4.43;;
47403;SDS011;33157;51.508;4.288;2023-03-25T10:43:26;29.00;;;4.22;;
47403;SDS011;33157;51.508;4.288;2023-03-25T10:48:22;21.80;;;4.40;;
47403;SDS011;33157;51.508;4.288;2023-03-25T10:53:28;25.35;;;3.95;;
47403;SDS011;33157;51.508;4.288;2023-03-25T10:58:32;21.75;;;4.80;;
47403;SDS011;33157;51.508;4.288;2023-03-25T11:03:35;24.50;;;4.80;;
47403;SDS011;33157;51.508;4.288;2023-03-25T11:08:46;25.40;;;4.43;;
47403;SDS011;33157;51.508;4.288;2023-03-25T11:14:22;23.88;;;4.13;;
47403;SDS011;33157;51.508;4.288;2023-03-25T11:19:32;23.27;;;4.35;;
47403;SDS011;33157;51.508;4.288;2023-03-25T11:24:41;21.52;;;3.75;;
47403;SDS011;33157;51.508;4.288;2023-03-25T11:29:54;22.65;;;4.15;;
47403;SDS011;33157;51.508;4.288;2023-03-25T11:35:01;28.50;;;4.35;;
47403;SDS011;33157;51.508;4.288;2023-03-25T11:40:16;17.90;;;3.45;;
47403;SDS011;33157;51.508;4.288;2023-03-25T11:45:19;29.35;;;4.68;;
47403;SDS011;33157;51.508;4.288;2023-03-25T11:50:38;17.88;;;4.30;;
47403;SDS011;33157;51.508;4.288;2023-03-25T11:55:53;26.55;;;3.42;;
47403;SDS011;33157;51.508;4.288;2023-03-25T12:01:04;13.77;;;3.10;;
47403;SDS011;33157;51.508;4.288;2023-03-25T12:11:23;17.50;;;3.28;;
47403;SDS011;33157;51.508;4.288;2023-03-25T12:16:34;18.20;;;3.63;;
47403;SDS011;33157;51.508;4.288;2023-03-25T12:22:00;20.75;;;3.05;;
47403;SDS011;33157;51.508;4.288;2023-03-25T12:27:24;25.17;;;3.92;;
47403;SDS011;33157;51.508;4.288;2023-03-25T13:04:40;21.55;;;3.50;;
47403;SDS011;33157;51.508;4.288;2023-03-25T13:20:11;18.52;;;2.95;;
47403;SDS011;33157;51.508;4.288;2023-03-25T13:25:18;20.02;;;3.50;;
47403;SDS011;33157;51.508;4.288;2023-03-25T13:30:43;28.15;;;4.90;;
47403;SDS011;33157;51.508;4.288;2023-03-25T13:35:58;21.35;;;3.22;;
47403;SDS011;33157;51.508;4.288;2023-03-25T13:46:30;27.08;;;3.33;;
47403;SDS011;33157;51.508;4.288;2023-03-25T13:51:40;16.10;;;3.83;;
47403;SDS011;33157;51.508;4.288;2023-03-25T13:57:02;14.68;;;3.28;;
47403;SDS011;33157;51.508;4.288;2023-03-25T14:13:07;22.10;;;3.70;;
47403;SDS011;33157;51.508;4.288;2023-03-25T14:18:17;17.98;;;3.88;;
47403;SDS011;33157;51.508;4.288;2023-03-25T14:23:31;12.73;;;3.10;;
47403;SDS011;33157;51.508;4.288;2023-03-25T14:28:37;19.60;;;3.30;;
47403;SDS011;33157;51.508;4.288;2023-03-25T14:38:59;18.42;;;3.42;;
47403;SDS011;33157;51.508;4.288;2023-03-25T14:44:18;27.10;;;4.25;;
47403;SDS011;33157;51.508;4.288;2023-03-25T14:49:21;22.77;;;4.95;;
47403;SDS011;33157;51.508;4.288;2023-03-25T14:54:27;20.48;;;3.58;;
47403;SDS011;33157;51.508;4.288;2023-03-25T14:59:40;16.05;;;2.95;;
47403;SDS011;33157;51.508;4.288;2023-03-25T15:05:32;20.35;;;3.65;;
47403;SDS011;33157;51.508;4.288;2023-03-25T15:10:25;20.40;;;3.80;;
47403;SDS011;33157;51.508;4.288;2023-03-25T15:20:46;24.88;;;3.80;;
47403;SDS011;33157;51.508;4.288;2023-03-25T15:25:56;21.98;;;3.42;;
47403;SDS011;33157;51.508;4.288;2023-03-25T15:42:19;20.50;;;3.65;;
47403;SDS011;33157;51.508;4.288;2023-03-25T15:58:20;29.33;;;4.00;;
47403;SDS011;33157;51.508;4.288;2023-03-25T16:03:32;17.15;;;3.40;;
47403;SDS011;33157;51.508;4.288;2023-03-25T16:08:38;22.98;;;3.92;;
47403;SDS011;33157;51.508;4.288;2023-03-25T16:13:40;25.33;;;4.03;;
47403;SDS011;33157;51.508;4.288;2023-03-25T16:18:42;21.92;;;5.07;;
47403;SDS011;33157;51.508;4.288;2023-03-25T16:23:53;23.45;;;4.57;;
47403;SDS011;33157;51.508;4.288;2023-03-25T16:29:04;22.40;;;4.15;;
47403;SDS011;33157;51.508;4.288;2023-03-25T16:34:18;22.83;;;4.18;;
47403;SDS011;33157;51.508;4.288;2023-03-25T16:39:20;23.90;;;5.15;;
47403;SDS011;33157;51.508;4.288;2023-03-25T16:49:30;17.77;;;3.40;;
47403;SDS011;33157;51.508;4.288;2023-03-25T17:00:02;19.05;;;4.10;;
47403;SDS011;33157;51.508;4.288;2023-03-25T17:05:36;22.23;;;4.97;;
47403;SDS011;33157;51.508;4.288;2023-03-25T17:10:52;29.63;;;4.95;;
47403;SDS011;33157;51.508;4.288;2023-03-25T17:15:55;21.92;;;3.85;;
47403;SDS011;33157;51.508;4.288;2023-03-25T17:21:07;22.02;;;4.45;;
47403;SDS011;33157;51.508;4.288;2023-03-25T17:26:18;25.88;;;3.92;;
47403;SDS011;33157;51.508;4.288;2023-03-25T17:36:41;22.58;;;5.03;;
47403;SDS011;33157;51.508;4.288;2023-03-25T17:41:54;22.20;;;5.55;;
47403;SDS011;33157;51.508;4.288;2023-03-25T17:47:16;17.58;;;3.95;;
47403;SDS011;33157;51.508;4.288;2023-03-25T17:52:26;27.40;;;4.55;;
47403;SDS011;33157;51.508;4.288;2023-03-25T17:57:29;30.63;;;5.00;;
47403;SDS011;33157;51.508;4.288;2023-03-25T18:02:33;28.35;;;5.68;;
47403;SDS011;33157;51.508;4.288;2023-03-25T18:07:34;30.88;;;5.00;;
47403;SDS011;33157;51.508;4.288;2023-03-25T18:12:48;27.65;;;4.55;;
47403;SDS011;33157;51.508;4.288;2023-03-25T18:17:53;26.13;;;4.95;;
47403;SDS011;33157;51.508;4.288;2023-03-25T18:23:06;35.47;;;6.40;;
47403;SDS011;33157;51.508;4.288;2023-03-25T18:33:14;34.88;;;5.40;;
47403;SDS011;33157;51.508;4.288;2023-03-25T18:43:38;33.63;;;5.60;;
47403;SDS011;33157;51.508;4.288;2023-03-25T18:48:42;34.83;;;6.70;;
47403;SDS011;33157;51.508;4.288;2023-03-25T18:53:52;32.67;;;6.80;;
47403;SDS011;33157;51.508;4.288;2023-03-25T18:58:55;33.75;;;6.45;;
47403;SDS011;33157;51.508;4.288;2023-03-25T19:04:09;33.08;;;6.10;;
47403;SDS011;33157;51.508;4.288;2023-03-25T19:09:13;29.20;;;5.65;;
47403;SDS011;33157;51.508;4.288;2023-03-25T19:14:33;32.53;;;6.05;;
47403;SDS011;33157;51.508;4.288;2023-03-25T19:19:35;33.00;;;6.80;;
47403;SDS011;33157;51.508;4.288;2023-03-25T19:24:51;36.13;;;8.43;;
47403;SDS011;33157;51.508;4.288;2023-03-25T19:29:54;38.78;;;7.90;;
47403;SDS011;33157;51.508;4.288;2023-03-25T19:34:55;30.15;;;5.65;;
47403;SDS011;33157;51.508;4.288;2023-03-25T19:40:05;37.08;;;6.43;;
47403;SDS011;33157;51.508;4.288;2023-03-25T19:45:10;32.25;;;6.40;;
47403;SDS011;33157;51.508;4.288;2023-03-25T19:50:24;48.00;;;7.38;;
47403;SDS011;33157;51.508;4.288;2023-03-25T19:55:32;46.30;;;8.52;;
47403;SDS011;33157;51.508;4.288;2023-03-25T20:00:40;48.53;;;7.82;;
47403;SDS011;33157;51.508;4.288;2023-03-25T20:05:46;49.03;;;8.10;;
47403;SDS011;33157;51.508;4.288;2023-03-25T20:10:47;47.25;;;10.23;;
47403;SDS011;33157;51.508;4.288;2023-03-25T20:15:49;52.55;;;8.35;;
47403;SDS011;33157;51.508;4.288;2023-03-25T20:21:01;50.13;;;9.55;;
47403;SDS011;33157;51.508;4.288;2023-03-25T20:26:07;44.35;;;6.82;;
47403;SDS011;33157;51.508;4.288;2023-03-25T20:31:12;49.35;;;8.05;;
47403;SDS011;33157;51.508;4.288;2023-03-25T20:36:21;45.42;;;7.55;;
47403;SDS011;33157;51.508;4.288;2023-03-25T20:41:39;44.30;;;7.47;;
47403;SDS011;33157;51.508;4.288;2023-03-25T20:46:46;33.13;;;7.07;;
47403;SDS011;33157;51.508;4.288;2023-03-25T20:51:53;47.50;;;7.32;;
47403;SDS011;33157;51.508;4.288;2023-03-25T20:57:03;43.80;;;7.00;;
47403;SDS011;33157;51.508;4.288;2023-03-25T21:02:08;48.88;;;9.68;;
47403;SDS011;33157;51.508;4.288;2023-03-25T21:07:16;48.95;;;8.88;;
47403;SDS011;33157;51.508;4.288;2023-03-25T21:12:25;52.28;;;9.63;;
47403;SDS011;33157;51.508;4.288;2023-03-25T21:17:27;65.38;;;10.82;;
47403;SDS011;33157;51.508;4.288;2023-03-25T21:22:31;46.33;;;8.77;;
47403;SDS011;33157;51.508;4.288;2023-03-25T21:27:32;58.00;;;7.82;;
47403;SDS011;33157;51.508;4.288;2023-03-25T21:32:33;50.03;;;7.03;;
47403;SDS011;33157;51.508;4.288;2023-03-25T21:37:35;47.28;;;7.65;;
47403;SDS011;33157;51.508;4.288;2023-03-25T21:42:44;56.80;;;8.70;;
47403;SDS011;33157;51.508;4.288;2023-03-25T21:47:51;29.63;;;6.60;;
47403;SDS011;33157;51.508;4.288;2023-03-25T21:53:03;38.35;;;7.78;;
47403;SDS011;33157;51.508;4.288;2023-03-25T21:58:04;54.72;;;8.30;;
47403;SDS011;33157;51.508;4.288;2023-03-25T22:03:06;39.53;;;7.15;;
47403;SDS011;33157;51.508;4.288;2023-03-25T22:08:34;60.63;;;10.13;;
47403;SDS011;33157;51.508;4.288;2023-03-25T22:13:38;38.38;;;6.90;;
47403;SDS011;33157;51.508;4.288;2023-03-25T22:18:41;52.40;;;7.55;;
47403;SDS011;33157;51.508;4.288;2023-03-25T22:23:49;43.50;;;8.15;;
47403;SDS011;33157;51.508;4.288;2023-03-25T22:29:11;46.05;;;8.60;;
47403;SDS011;33157;51.508;4.288;2023-03-25T22:34:13;50.15;;;8.93;;
47403;SDS011;33157;51.508;4.288;2023-03-25T22:39:15;55.40;;;8.93;;
47403;SDS011;33157;51.508;4.288;2023-03-25T22:44:23;50.90;;;7.70;;
47403;SDS011;33157;51.508;4.288;2023-03-25T22:49:40;52.57;;;8.10;;
47403;SDS011;33157;51.508;4.288;2023-03-25T22:54:41;48.00;;;9.85;;
47403;SDS011;33157;51.508;4.288;2023-03-25T22:59:49;41.60;;;6.53;;
47403;SDS011;33157;51.508;4.288;2023-03-25T23:04:54;48.10;;;7.35;;
47403;SDS011;33157;51.508;4.288;2023-03-25T23:09:57;46.45;;;7.30;;
47403;SDS011;33157;51.508;4.288;2023-03-25T23:15:00;47.67;;;6.63;;
47403;SDS011;33157;51.508;4.288;2023-03-25T23:20:02;46.17;;;7.85;;
47403;SDS011;33157;51.508;4.288;2023-03-25T23:25:13;46.92;;;7.07;;
47403;SDS011;33157;51.508;4.288;2023-03-25T23:30:14;40.83;;;7.55;;
47403;SDS011;33157;51.508;4.288;2023-03-25T23:35:15;43.88;;;7.35;;
47403;SDS011;33157;51.508;4.288;2023-03-25T23:40:18;33.50;;;6.25;;
47403;SDS011;33157;51.508;4.288;2023-03-25T23:45:19;42.77;;;7.57;;
47403;SDS011;33157;51.508;4.288;2023-03-25T23:50:30;44.53;;;6.55;;
47403;SDS011;33157;51.508;4.288;2023-03-25T23:55:49;45.40;;;7.45;;
